createdAt,value
2022-11-20T00:01:24.712Z,-3.90
2022-11-20T00:03:56.461Z,-4.00
2022-11-20T00:06:24.243Z,-4.10
2022-11-20T00:08:51.688Z,-4.10
2022-11-20T00:11:20.770Z,-4.20
2022-11-20T00:13:49.494Z,-4.20
2022-11-20T00:16:19.578Z,-4.30
2022-11-20T00:18:46.741Z,-4.30
2022-11-20T00:21:19.271Z,-4.30
2022-11-20T00:23:46.904Z,-4.30
2022-11-20T00:26:15.879Z,-4.20
2022-11-20T00:28:45.394Z,-4.20
2022-11-20T00:31:14.913Z,-4.30
2022-11-20T00:33:43.530Z,-4.30
2022-11-20T00:36:12.794Z,-4.30
2022-11-20T00:38:39.809Z,-4.40
2022-11-20T00:41:09.846Z,-4.30
2022-11-20T00:43:37.357Z,-4.30
2022-11-20T00:46:26.836Z,-4.40
2022-11-20T00:48:53.853Z,-4.40
2022-11-20T00:51:22.826Z,-4.40
2022-11-20T00:53:50.311Z,-4.40
2022-11-20T00:56:19.207Z,-4.40
2022-11-20T00:58:48.346Z,-4.40
2022-11-20T01:01:16.392Z,-4.40
2022-11-20T01:03:46.055Z,-4.40
2022-11-20T01:06:17.153Z,-4.40
2022-11-20T01:08:44.623Z,-4.40
2022-11-20T01:11:14.362Z,-4.50
2022-11-20T01:13:42.527Z,-4.50
2022-11-20T01:16:34.214Z,-4.60
2022-11-20T01:19:04.332Z,-4.60
2022-11-20T01:21:34.654Z,-4.50
2022-11-20T01:24:02.639Z,-4.40
2022-11-20T01:26:33.042Z,-4.30
2022-11-20T01:29:01.244Z,-4.30
2022-11-20T01:31:37.202Z,-4.40
2022-11-20T01:34:10.407Z,-4.50
2022-11-20T01:36:38.377Z,-4.50
2022-11-20T01:39:08.068Z,-4.50
2022-11-20T01:41:53.845Z,-4.40
2022-11-20T01:44:23.675Z,-4.40
2022-11-20T01:47:05.151Z,-4.30
2022-11-20T01:49:39.934Z,-4.10
2022-11-20T01:52:31.945Z,-3.90
2022-11-20T01:55:13.693Z,-3.80
2022-11-20T01:57:41.814Z,-3.60
2022-11-20T02:00:22.449Z,-3.40
2022-11-20T02:02:54.652Z,-3.30
2022-11-20T02:05:47.474Z,-3.20
2022-11-20T02:08:14.798Z,-3.00
2022-11-20T02:10:41.752Z,-3.10
2022-11-20T02:13:28.075Z,-3.10
2022-11-20T02:15:55.188Z,-3.20
2022-11-20T02:18:23.207Z,-3.20
2022-11-20T02:21:02.085Z,-3.30
2022-11-20T02:23:37.659Z,-3.30
2022-11-20T02:26:07.901Z,-3.20
2022-11-20T02:28:34.862Z,-3.20
2022-11-20T02:31:02.362Z,-3.10
2022-11-20T02:33:29.279Z,-3.20
2022-11-20T02:35:56.184Z,-3.10
2022-11-20T02:38:23.101Z,-3.10
2022-11-20T02:40:55.131Z,-2.90
2022-11-20T02:43:22.994Z,-2.80
2022-11-20T02:45:50.571Z,-2.90
2022-11-20T02:48:17.535Z,-2.90
2022-11-20T02:50:44.434Z,-2.90
2022-11-20T02:53:11.456Z,-2.80
2022-11-20T02:55:38.523Z,-2.70
2022-11-20T02:58:05.565Z,-2.70
2022-11-20T03:00:33.044Z,-2.70
2022-11-20T03:03:00.098Z,-2.50
2022-11-20T03:05:27.063Z,-2.50
2022-11-20T03:07:53.964Z,-2.40
2022-11-20T03:10:20.831Z,-2.40
2022-11-20T03:12:47.670Z,-2.40
2022-11-20T03:15:14.677Z,-2.40
2022-11-20T03:17:41.594Z,-2.40
2022-11-20T03:20:10.142Z,-2.40
2022-11-20T03:22:37.033Z,-2.40
2022-11-20T03:25:04.448Z,-2.40
2022-11-20T03:27:35.669Z,-2.40
2022-11-20T03:30:02.602Z,-2.30
2022-11-20T03:32:29.676Z,-2.30
2022-11-20T03:34:56.502Z,-2.30
2022-11-20T03:37:23.842Z,-2.30
2022-11-20T03:39:50.797Z,-2.20
2022-11-20T03:42:36.372Z,-2.20
2022-11-20T03:45:03.620Z,-2.20
2022-11-20T03:47:30.491Z,-2.10
2022-11-20T03:49:57.331Z,-2.10
2022-11-20T03:52:24.248Z,-2.10
2022-11-20T03:54:51.233Z,-2.00
2022-11-20T03:57:18.169Z,-1.90
2022-11-20T03:59:45.100Z,-1.90
2022-11-20T04:02:12.079Z,-1.90
2022-11-20T04:04:38.963Z,-1.90
2022-11-20T04:07:05.885Z,-1.90
2022-11-20T04:09:32.793Z,-1.90
2022-11-20T04:11:59.697Z,-1.90
2022-11-20T04:14:26.557Z,-1.70
2022-11-20T04:16:53.454Z,-1.80
2022-11-20T04:19:20.743Z,-1.90
2022-11-20T04:21:48.057Z,-1.80
2022-11-20T04:24:14.900Z,-1.90
2022-11-20T04:26:42.101Z,-1.80
2022-11-20T04:29:12.243Z,-1.70
2022-11-20T04:31:39.570Z,-1.80
2022-11-20T04:34:08.179Z,-1.70
2022-11-20T04:36:35.382Z,-1.70
2022-11-20T04:39:05.280Z,-1.70
2022-11-20T04:41:34.750Z,-1.70
2022-11-20T04:44:04.368Z,-1.60
2022-11-20T04:46:40.684Z,-1.60
2022-11-20T04:49:08.635Z,-1.60
2022-11-20T04:51:35.934Z,-1.60
2022-11-20T04:54:03.113Z,-1.50
2022-11-20T04:56:30.104Z,-1.50
2022-11-20T04:59:00.504Z,-1.50
2022-11-20T05:01:27.363Z,-1.60
2022-11-20T05:03:56.578Z,-1.70
2022-11-20T05:06:23.656Z,-1.60
2022-11-20T05:08:51.065Z,-1.70
2022-11-20T05:11:20.814Z,-1.60
2022-11-20T05:13:48.166Z,-1.60
2022-11-20T05:16:18.119Z,-1.60
2022-11-20T05:18:45.405Z,-1.60
2022-11-20T05:21:15.530Z,-1.60
2022-11-20T05:23:43.386Z,-1.70
2022-11-20T05:26:22.382Z,-1.70
2022-11-20T05:28:50.701Z,-1.70
2022-11-20T05:31:27.800Z,-1.70
2022-11-20T05:33:57.008Z,-1.80
2022-11-20T05:36:24.412Z,-1.80
2022-11-20T05:38:52.906Z,-1.80
2022-11-20T05:41:22.295Z,-1.80
2022-11-20T05:43:51.747Z,-1.80
2022-11-20T05:46:27.656Z,-1.80
2022-11-20T05:48:56.756Z,-1.80
2022-11-20T05:51:24.669Z,-1.80
2022-11-20T05:53:51.835Z,-1.90
2022-11-20T05:56:20.968Z,-2.10
2022-11-20T05:58:48.537Z,-2.10
2022-11-20T06:01:22.613Z,-2.20
2022-11-20T06:03:51.664Z,-2.30
2022-11-20T06:06:20.523Z,-2.10
2022-11-20T06:08:48.582Z,-2.20
2022-11-20T06:11:18.739Z,-2.30
2022-11-20T06:13:46.384Z,-2.40
2022-11-20T06:16:15.989Z,-2.60
2022-11-20T06:18:42.973Z,-2.70
2022-11-20T06:21:12.270Z,-2.80
2022-11-20T06:23:39.689Z,-2.90
2022-11-20T06:26:11.701Z,-3.30
2022-11-20T06:28:39.272Z,-3.10
2022-11-20T06:31:07.398Z,-3.10
2022-11-20T06:33:34.565Z,-3.20
2022-11-20T06:36:07.200Z,-3.10
2022-11-20T06:38:37.319Z,-3.20
2022-11-20T06:41:05.495Z,-3.20
2022-11-20T06:43:32.467Z,-3.30
2022-11-20T06:46:00.151Z,-3.30
2022-11-20T06:48:28.390Z,-3.30
2022-11-20T06:50:55.335Z,-3.30
2022-11-20T06:53:23.612Z,-3.40
2022-11-20T06:55:51.430Z,-3.30
2022-11-20T06:58:19.225Z,-3.30
2022-11-20T07:00:46.310Z,-3.40
2022-11-20T07:03:13.859Z,-3.40
2022-11-20T07:05:41.216Z,-3.40
2022-11-20T07:08:08.632Z,-3.40
2022-11-20T07:10:36.095Z,-3.40
2022-11-20T07:13:03.009Z,-3.40
2022-11-20T07:15:30.407Z,-3.40
2022-11-20T07:18:00.498Z,-3.30
2022-11-20T07:20:27.446Z,-3.30
2022-11-20T07:22:58.922Z,-3.20
2022-11-20T07:25:27.042Z,-3.20
2022-11-20T07:27:57.506Z,-3.00
2022-11-20T07:30:24.402Z,-3.00
2022-11-20T07:32:54.904Z,-3.00
2022-11-20T07:35:22.368Z,-2.90
2022-11-20T07:37:49.668Z,-2.80
2022-11-20T07:40:17.702Z,-2.60
2022-11-20T07:42:52.278Z,-2.50
2022-11-20T07:45:24.234Z,-2.30
2022-11-20T07:47:51.755Z,-2.10
2022-11-20T07:50:20.025Z,-2.00
2022-11-20T07:52:47.129Z,-1.70
2022-11-20T07:55:14.226Z,-1.70
2022-11-20T07:57:41.233Z,-1.50
2022-11-20T08:00:10.998Z,-1.40
2022-11-20T08:02:41.969Z,-1.30
2022-11-20T08:05:10.594Z,-1.20
2022-11-20T08:07:42.269Z,-0.90
2022-11-20T08:10:11.104Z,-1.20
2022-11-20T08:13:03.105Z,-1.10
2022-11-20T08:15:30.188Z,-0.90
2022-11-20T08:18:30.058Z,-0.70
2022-11-20T08:20:52.116Z,-0.80
2022-11-20T08:23:19.150Z,-0.70
2022-11-20T08:25:50.958Z,-0.60
2022-11-20T08:28:21.228Z,-0.50
2022-11-20T08:30:49.970Z,-0.40
2022-11-20T08:33:18.302Z,-0.50
2022-11-20T08:35:45.313Z,-0.50
2022-11-20T08:38:12.462Z,-0.50
2022-11-20T08:40:39.400Z,-0.60
2022-11-20T08:43:06.311Z,-0.60
2022-11-20T08:45:34.859Z,-0.50
2022-11-20T08:48:04.146Z,-0.50
2022-11-20T08:50:33.307Z,-0.50
2022-11-20T08:53:04.957Z,-0.40
2022-11-20T08:55:32.120Z,-0.40
2022-11-20T08:57:59.036Z,-0.30
2022-11-20T09:00:25.988Z,-0.20
2022-11-20T09:02:53.386Z,0.60
2022-11-20T09:05:20.287Z,5.90
2022-11-20T09:07:47.185Z,10.20
2022-11-20T09:10:23.947Z,11.50
2022-11-20T09:12:52.855Z,11.80
2022-11-20T09:15:20.063Z,11.50
2022-11-20T09:18:16.435Z,12.70
2022-11-20T09:20:43.741Z,14.00
2022-11-20T09:23:10.632Z,15.30
2022-11-20T09:25:37.529Z,14.50
2022-11-20T09:28:04.546Z,16.00
2022-11-20T09:30:31.904Z,17.50
2022-11-20T09:32:58.839Z,17.60
2022-11-20T09:35:25.851Z,17.30
2022-11-20T09:37:52.780Z,16.90
2022-11-20T09:40:28.601Z,16.80
2022-11-20T09:43:15.303Z,14.70
2022-11-20T09:45:51.317Z,15.40
2022-11-20T09:48:34.860Z,14.70
2022-11-20T09:51:23.246Z,15.50
2022-11-20T09:54:35.183Z,15.90
2022-11-20T09:57:06.375Z,16.70
2022-11-20T09:59:47.665Z,18.80
2022-11-20T10:02:53.107Z,16.40
2022-11-20T10:05:32.717Z,16.70
2022-11-20T10:08:25.948Z,16.30
2022-11-20T10:11:14.550Z,17.10
2022-11-20T10:13:54.536Z,18.40
2022-11-20T10:17:04.676Z,19.00
2022-11-20T10:19:53.403Z,19.10
2022-11-20T10:22:48.156Z,19.50
2022-11-20T10:25:21.085Z,18.40
2022-11-20T10:28:12.681Z,15.70
2022-11-20T10:30:44.067Z,16.60
2022-11-20T10:33:22.123Z,15.10
2022-11-20T10:36:20.074Z,16.00
2022-11-20T10:39:05.029Z,16.70
2022-11-20T10:41:40.033Z,15.40
2022-11-20T10:44:36.418Z,16.10
2022-11-20T10:47:06.188Z,16.30
2022-11-20T10:49:35.533Z,15.20
2022-11-20T10:52:30.098Z,14.40
2022-11-20T10:55:05.960Z,15.50
2022-11-20T10:57:41.807Z,15.70
2022-11-20T11:00:11.872Z,16.70
2022-11-20T11:02:48.577Z,15.90
2022-11-20T11:05:23.340Z,16.90
2022-11-20T11:07:54.262Z,14.30
2022-11-20T11:10:24.183Z,13.90
2022-11-20T11:12:51.103Z,15.70
2022-11-20T11:15:28.699Z,16.50
2022-11-20T11:17:55.717Z,13.90
2022-11-20T11:20:25.418Z,15.90
2022-11-20T11:22:56.041Z,17.30
2022-11-20T11:25:34.719Z,17.70
2022-11-20T11:28:20.642Z,17.50
2022-11-20T11:30:50.147Z,15.40
2022-11-20T11:33:28.801Z,15.70
2022-11-20T11:36:04.852Z,16.30
2022-11-20T11:38:45.001Z,13.60
2022-11-20T11:41:29.135Z,15.10
2022-11-20T11:44:19.536Z,14.90
2022-11-20T11:46:57.446Z,13.10
2022-11-20T11:49:24.775Z,12.30
2022-11-20T11:52:18.589Z,12.20
2022-11-20T11:55:00.696Z,11.00
2022-11-20T11:57:55.425Z,12.50
2022-11-20T12:00:23.825Z,11.50
2022-11-20T12:03:10.434Z,10.60
2022-11-20T12:05:45.941Z,9.20
2022-11-20T12:08:24.687Z,8.50
2022-11-20T12:11:30.924Z,8.00
2022-11-20T12:14:15.959Z,7.30
2022-11-20T12:16:42.941Z,7.00
2022-11-20T12:19:13.718Z,6.80
2022-11-20T12:21:56.128Z,7.10
2022-11-20T12:24:56.900Z,7.30
2022-11-20T12:27:38.603Z,7.60
2022-11-20T12:30:17.592Z,8.00
2022-11-20T12:33:03.010Z,8.30
2022-11-20T12:35:55.178Z,7.00
2022-11-20T12:38:25.007Z,6.90
2022-11-20T12:41:03.063Z,6.60
2022-11-20T12:43:52.860Z,6.80
2022-11-20T12:46:41.012Z,6.80
2022-11-20T12:49:10.895Z,6.70
2022-11-20T12:52:15.425Z,6.70
2022-11-20T12:54:48.461Z,6.60
2022-11-20T12:57:15.306Z,5.90
2022-11-20T12:59:54.202Z,5.70
2022-11-20T13:02:58.564Z,5.60
2022-11-20T13:05:51.869Z,5.40
2022-11-20T13:08:29.299Z,5.00
2022-11-20T13:11:03.174Z,5.10
2022-11-20T13:13:54.535Z,5.10
2022-11-20T13:16:24.948Z,5.00
2022-11-20T13:18:52.068Z,5.20
2022-11-20T13:21:36.476Z,5.40
2022-11-20T13:24:08.274Z,5.80
2022-11-20T13:26:35.244Z,5.80
2022-11-20T13:29:19.300Z,5.70
2022-11-20T13:31:49.770Z,5.30
2022-11-20T13:34:27.999Z,5.10
2022-11-20T13:36:57.855Z,5.00
2022-11-20T13:39:26.968Z,4.80
2022-11-20T13:41:59.986Z,4.60
2022-11-20T13:44:39.129Z,4.50
2022-11-20T13:47:24.215Z,4.70
2022-11-20T13:49:54.111Z,4.50
2022-11-20T13:52:52.248Z,4.30
2022-11-20T13:55:36.220Z,4.10
2022-11-20T13:58:20.669Z,4.20
2022-11-20T14:00:56.463Z,4.30
2022-11-20T14:03:44.089Z,4.30
2022-11-20T14:06:32.376Z,4.50
2022-11-20T14:09:00.593Z,4.40
2022-11-20T14:11:29.631Z,4.10
2022-11-20T14:13:58.551Z,4.20
2022-11-20T14:16:26.983Z,4.30
2022-11-20T14:18:54.366Z,4.30
2022-11-20T14:21:30.450Z,4.20
2022-11-20T14:24:07.788Z,4.00
2022-11-20T14:26:35.071Z,4.00
2022-11-20T14:29:02.286Z,4.10
2022-11-20T14:31:29.701Z,4.00
2022-11-20T14:33:57.559Z,3.90
2022-11-20T14:36:27.068Z,3.20
2022-11-20T14:38:54.764Z,3.90
2022-11-20T14:41:23.897Z,3.90
2022-11-20T14:44:02.822Z,3.90
2022-11-20T14:46:32.773Z,3.90
2022-11-20T14:49:04.988Z,3.90
2022-11-20T14:51:42.724Z,3.90
2022-11-20T14:54:23.278Z,3.80
2022-11-20T14:56:57.112Z,3.70
2022-11-20T14:59:32.370Z,3.80
2022-11-20T15:02:04.602Z,3.80
2022-11-20T15:04:31.686Z,3.80
2022-11-20T15:07:00.780Z,3.80
2022-11-20T15:09:27.888Z,3.70
2022-11-20T15:11:58.774Z,3.70
2022-11-20T15:14:28.185Z,3.70
2022-11-20T15:16:56.159Z,3.60
2022-11-20T15:19:27.724Z,3.50
2022-11-20T15:21:54.744Z,3.40
2022-11-20T15:24:22.020Z,3.30
2022-11-20T15:26:49.240Z,3.30
2022-11-20T15:29:21.820Z,3.10
2022-11-20T15:31:48.736Z,3.20
2022-11-20T15:34:16.689Z,3.20
2022-11-20T15:36:44.737Z,3.10
2022-11-20T15:39:12.570Z,3.00
2022-11-20T15:41:40.112Z,3.00
2022-11-20T15:44:07.274Z,3.00
2022-11-20T15:46:39.496Z,3.00
2022-11-20T15:49:10.888Z,3.00
2022-11-20T15:51:39.890Z,3.00
2022-11-20T15:54:14.422Z,3.10
2022-11-20T15:56:41.424Z,3.10
2022-11-20T15:59:08.647Z,3.00
2022-11-20T16:01:36.084Z,3.00
2022-11-20T16:04:03.326Z,3.00
2022-11-20T16:06:30.249Z,3.00
2022-11-20T16:08:57.230Z,3.00
2022-11-20T16:11:24.173Z,3.00
2022-11-20T16:14:09.507Z,3.00
2022-11-20T16:16:38.637Z,2.90
2022-11-20T16:19:06.097Z,2.90
2022-11-20T16:21:33.439Z,2.90
2022-11-20T16:24:01.698Z,2.90
2022-11-20T16:26:29.158Z,2.80
2022-11-20T16:28:56.826Z,2.80
2022-11-20T16:31:23.869Z,2.80
2022-11-20T16:33:55.551Z,2.70
2022-11-20T16:36:24.316Z,2.80
2022-11-20T16:39:02.827Z,2.80
2022-11-20T16:41:32.956Z,2.80
2022-11-20T16:44:02.250Z,2.70
2022-11-20T16:46:31.752Z,2.80
2022-11-20T16:49:04.148Z,2.80
2022-11-20T16:51:34.233Z,2.80
2022-11-20T16:54:05.665Z,2.70
2022-11-20T16:56:33.227Z,2.60
2022-11-20T16:59:01.180Z,2.60
2022-11-20T17:01:29.355Z,2.60
2022-11-20T17:04:07.135Z,2.60
2022-11-20T17:06:40.313Z,2.60
2022-11-20T17:09:11.099Z,2.60
2022-11-20T17:11:38.502Z,2.50
2022-11-20T17:14:07.450Z,2.50
2022-11-20T17:16:35.713Z,2.40
2022-11-20T17:19:03.921Z,2.40
2022-11-20T17:21:31.783Z,2.50
2022-11-20T17:24:05.561Z,2.50
2022-11-20T17:26:33.241Z,1.80
2022-11-20T17:29:24.196Z,2.50
2022-11-20T17:31:51.411Z,2.50
2022-11-20T17:34:18.489Z,2.60
2022-11-20T17:36:46.457Z,2.50
2022-11-20T17:39:17.958Z,2.50
2022-11-20T17:41:45.210Z,2.60
2022-11-20T17:44:13.476Z,2.60
2022-11-20T17:46:40.745Z,2.60
2022-11-20T17:49:07.740Z,2.50
2022-11-20T17:51:35.494Z,2.40
2022-11-20T17:54:04.990Z,2.50
2022-11-20T17:56:54.165Z,2.50
2022-11-20T17:59:21.507Z,2.50
2022-11-20T18:01:48.770Z,2.50
2022-11-20T18:04:16.823Z,2.50
2022-11-20T18:06:44.076Z,2.50
2022-11-20T18:09:11.636Z,2.50
2022-11-20T18:11:40.229Z,2.50
2022-11-20T18:14:28.699Z,2.50
2022-11-20T18:16:58.538Z,2.50
2022-11-20T18:19:32.130Z,2.50
2022-11-20T18:22:01.585Z,2.40
2022-11-20T18:24:28.842Z,2.50
2022-11-20T18:26:57.642Z,2.50
2022-11-20T18:29:25.556Z,2.50
2022-11-20T18:31:53.414Z,2.50
2022-11-20T18:34:20.764Z,2.50
2022-11-20T18:36:47.757Z,2.60
2022-11-20T18:39:15.257Z,2.60
2022-11-20T18:42:01.617Z,2.60
2022-11-20T18:44:49.670Z,2.60
2022-11-20T18:47:19.283Z,2.60
2022-11-20T18:49:51.297Z,2.60
2022-11-20T18:52:23.882Z,2.60
2022-11-20T18:54:51.217Z,2.50
2022-11-20T18:57:19.982Z,2.60
2022-11-20T18:59:47.331Z,2.60
2022-11-20T19:02:16.407Z,2.60
2022-11-20T19:04:43.550Z,2.60
2022-11-20T19:07:14.221Z,2.60
2022-11-20T19:09:43.082Z,2.50
2022-11-20T19:12:11.662Z,2.50
2022-11-20T19:14:38.836Z,2.40
2022-11-20T19:17:06.882Z,2.40
2022-11-20T19:19:37.190Z,2.40
2022-11-20T19:22:04.435Z,2.40
2022-11-20T19:24:31.421Z,2.40
2022-11-20T19:26:58.407Z,2.40
2022-11-20T19:29:26.851Z,2.40
2022-11-20T19:31:53.981Z,2.30
2022-11-20T19:34:21.229Z,2.30
2022-11-20T19:36:48.233Z,2.20
2022-11-20T19:39:15.441Z,2.20
2022-11-20T19:41:43.314Z,2.20
2022-11-20T19:44:15.398Z,2.20
2022-11-20T19:46:42.501Z,2.20
2022-11-20T19:49:12.309Z,2.20
2022-11-20T19:51:45.578Z,2.20
2022-11-20T19:54:12.982Z,2.20
2022-11-20T19:56:39.958Z,2.10
2022-11-20T19:59:06.895Z,2.20
2022-11-20T20:01:34.002Z,2.20
2022-11-20T20:04:05.542Z,2.20
2022-11-20T20:06:34.785Z,2.20
2022-11-20T20:09:05.154Z,2.20
2022-11-20T20:11:34.121Z,2.20
2022-11-20T20:14:03.860Z,2.20
2022-11-20T20:16:31.178Z,2.20
2022-11-20T20:19:01.546Z,2.20
2022-11-20T20:21:30.528Z,2.20
2022-11-20T20:23:58.452Z,2.10
2022-11-20T20:26:27.264Z,2.20
2022-11-20T20:28:55.001Z,2.10
2022-11-20T20:31:24.558Z,2.10
2022-11-20T20:33:51.695Z,2.10
2022-11-20T20:36:20.088Z,2.10
2022-11-20T20:38:47.710Z,2.00
2022-11-20T20:41:18.485Z,2.00
2022-11-20T20:44:03.959Z,2.00
2022-11-20T20:46:30.959Z,2.00
2022-11-20T20:48:58.064Z,2.00
2022-11-20T20:51:25.128Z,2.10
2022-11-20T20:53:52.072Z,2.10
2022-11-20T20:56:19.340Z,2.10
2022-11-20T20:58:46.323Z,2.10
2022-11-20T21:01:16.569Z,2.00
2022-11-20T21:03:43.728Z,2.00
2022-11-20T21:06:11.338Z,2.00
2022-11-20T21:08:40.616Z,2.00
2022-11-20T21:11:14.035Z,2.00
2022-11-20T21:13:42.934Z,2.00
2022-11-20T21:16:11.338Z,2.00
2022-11-20T21:18:38.454Z,2.00
2022-11-20T21:21:25.716Z,2.00
2022-11-20T21:23:53.659Z,2.00
2022-11-20T21:26:20.981Z,2.00
2022-11-20T21:28:48.424Z,2.00
2022-11-20T21:31:27.356Z,2.00
2022-11-20T21:33:56.591Z,2.10
2022-11-20T21:36:25.852Z,2.10
2022-11-20T21:38:54.893Z,2.10
2022-11-20T21:41:22.797Z,2.10
2022-11-20T21:44:09.467Z,2.20
2022-11-20T21:46:40.641Z,2.10
2022-11-20T21:49:08.386Z,2.20
2022-11-20T21:51:35.691Z,2.20
2022-11-20T21:54:02.728Z,2.20
2022-11-20T21:56:29.826Z,2.20
2022-11-20T21:58:56.790Z,2.20
2022-11-20T22:01:26.489Z,2.10
2022-11-20T22:03:57.181Z,2.20
2022-11-20T22:06:30.220Z,2.20
2022-11-20T22:08:57.137Z,2.30
2022-11-20T22:11:24.163Z,2.20
2022-11-20T22:14:09.694Z,2.20
2022-11-20T22:16:37.984Z,2.20
2022-11-20T22:19:06.065Z,2.30
2022-11-20T22:21:34.103Z,2.20
2022-11-20T22:24:01.594Z,2.20
2022-11-20T22:26:30.799Z,2.30
2022-11-20T22:28:59.095Z,2.40
2022-11-20T22:31:29.285Z,2.30
2022-11-20T22:33:57.567Z,2.30
2022-11-20T22:36:28.348Z,2.30
2022-11-20T22:38:55.525Z,2.40
2022-11-20T22:41:27.354Z,2.40
2022-11-20T22:43:59.122Z,2.40
2022-11-20T22:46:27.995Z,2.40
2022-11-20T22:49:00.435Z,2.50
2022-11-20T22:51:32.811Z,2.50
2022-11-20T22:54:03.378Z,2.40
2022-11-20T22:56:30.869Z,2.40
2022-11-20T22:58:58.186Z,2.50
2022-11-20T23:01:33.431Z,2.40
2022-11-20T23:04:02.694Z,2.30
2022-11-20T23:06:30.690Z,2.30
2022-11-20T23:08:57.617Z,2.40
2022-11-20T23:11:27.274Z,2.40
2022-11-20T23:14:05.545Z,2.30
2022-11-20T23:16:33.450Z,2.40
2022-11-20T23:19:03.660Z,2.40
2022-11-20T23:21:30.653Z,2.40
2022-11-20T23:23:58.714Z,2.30
2022-11-20T23:26:28.628Z,2.30
2022-11-20T23:28:57.689Z,2.20
2022-11-20T23:31:25.570Z,2.20
2022-11-20T23:33:52.829Z,2.20
2022-11-20T23:36:19.931Z,2.10
2022-11-20T23:38:46.939Z,2.10
2022-11-20T23:41:14.525Z,2.20
2022-11-20T23:43:41.611Z,2.10
2022-11-20T23:46:13.761Z,2.10
2022-11-20T23:48:44.919Z,2.10
2022-11-20T23:51:12.064Z,2.10
2022-11-20T23:53:39.311Z,2.10
2022-11-20T23:56:06.579Z,2.10
2022-11-20T23:58:36.609Z,2.10
